sensor_id;sensor_type;location;lat;lon;timestamp;pressure;altitude;pressure_sealevel;temperature
71897;BMP280;59767;51.344;12.362;2023-04-01T00:00:44;161260.75;;;10.19
71897;BMP280;59767;51.344;12.362;2023-04-01T00:03:49;161247.66;;;10.14
71897;BMP280;59767;51.344;12.362;2023-04-01T00:06:53;161246.38;;;10.13
71897;BMP280;59767;51.344;12.362;2023-04-01T00:09:57;161258.13;;;10.18
71897;BMP280;59767;51.344;12.362;2023-04-01T00:13:01;161258.13;;;10.18
71897;BMP280;59767;51.344;12.362;2023-04-01T00:16:05;161272.47;;;10.23
71897;BMP280;59767;51.344;12.362;2023-04-01T00:19:23;161271.19;;;10.23
71897;BMP280;59767;51.344;12.362;2023-04-01T00:22:27;161280.38;;;10.26
71897;BMP280;59767;51.344;12.362;2023-04-01T00:25:31;161280.38;;;10.26
71897;BMP280;59767;51.344;12.362;2023-04-01T00:28:36;161279.06;;;10.26
71897;BMP280;59767;51.344;12.362;2023-04-01T00:31:40;161281.66;;;10.27
71897;BMP280;59767;51.344;12.362;2023-04-01T00:34:44;161280.38;;;10.26
71897;BMP280;59767;51.344;12.362;2023-04-01T00:37:48;161268.59;;;10.22
71897;BMP280;59767;51.344;12.362;2023-04-01T00:40:56;161264.66;;;10.20
71897;BMP280;59767;51.344;12.362;2023-04-01T00:44:18;161247.66;;;10.14
71897;BMP280;59767;51.344;12.362;2023-04-01T00:47:22;161250.28;;;10.15
71897;BMP280;59767;51.344;12.362;2023-04-01T00:50:27;161242.47;;;10.12
71897;BMP280;59767;51.344;12.362;2023-04-01T00:53:33;161238.53;;;10.10
71897;BMP280;59767;51.344;12.362;2023-04-01T00:56:45;161239.81;;;10.11
71897;BMP280;59767;51.344;12.362;2023-04-01T00:59:52;161235.88;;;10.09
71897;BMP280;59767;51.344;12.362;2023-04-01T01:02:58;161234.59;;;10.09
71897;BMP280;59767;51.344;12.362;2023-04-01T01:06:15;161247.66;;;10.14
71897;BMP280;59767;51.344;12.362;2023-04-01T01:09:30;161235.88;;;10.09
71897;BMP280;59767;51.344;12.362;2023-04-01T01:12:40;161231.94;;;10.08
71897;BMP280;59767;51.344;12.362;2023-04-01T01:25:08;161235.88;;;10.09
71897;BMP280;59767;51.344;12.362;2023-04-01T01:37:55;161231.94;;;10.08
71897;BMP280;59767;51.344;12.362;2023-04-01T01:41:00;161246.38;;;10.13
71897;BMP280;59767;51.344;12.362;2023-04-01T01:44:06;161247.66;;;10.14
71897;BMP280;59767;51.344;12.362;2023-04-01T01:47:10;161245.06;;;10.13
71897;BMP280;59767;51.344;12.362;2023-04-01T01:50:15;161251.53;;;10.15
71897;BMP280;59767;51.344;12.362;2023-04-01T01:53:19;161252.88;;;10.16
71897;BMP280;59767;51.344;12.362;2023-04-01T01:56:23;161246.38;;;10.13
71897;BMP280;59767;51.344;12.362;2023-04-01T01:59:31;161242.47;;;10.12
71897;BMP280;59767;51.344;12.362;2023-04-01T02:02:37;161245.06;;;10.13
71897;BMP280;59767;51.344;12.362;2023-04-01T02:05:41;161250.28;;;10.15
71897;BMP280;59767;51.344;12.362;2023-04-01T02:08:47;161247.66;;;10.14
71897;BMP280;59767;51.344;12.362;2023-04-01T02:12:02;161252.88;;;10.16
71897;BMP280;59767;51.344;12.362;2023-04-01T02:15:08;161255.47;;;10.17
71897;BMP280;59767;51.344;12.362;2023-04-01T02:18:13;161252.88;;;10.16
71897;BMP280;59767;51.344;12.362;2023-04-01T02:21:18;161254.19;;;10.16
71897;BMP280;59767;51.344;12.362;2023-04-01T02:24:23;161252.88;;;10.16
71897;BMP280;59767;51.344;12.362;2023-04-01T02:27:28;161248.94;;;10.14
71897;BMP280;59767;51.344;12.362;2023-04-01T02:30:34;161252.88;;;10.16
71897;BMP280;59767;51.344;12.362;2023-04-01T02:33:39;161254.19;;;10.16
71897;BMP280;59767;51.344;12.362;2023-04-01T02:36:43;161252.88;;;10.16
71897;BMP280;59767;51.344;12.362;2023-04-01T02:39:47;161260.75;;;10.19
71897;BMP280;59767;51.344;12.362;2023-04-01T02:42:51;161256.81;;;10.17
71897;BMP280;59767;51.344;12.362;2023-04-01T02:45:55;161251.53;;;10.15
71897;BMP280;59767;51.344;12.362;2023-04-01T02:48:59;161254.19;;;10.16
71897;BMP280;59767;51.344;12.362;2023-04-01T02:52:04;161252.88;;;10.16
71897;BMP280;59767;51.344;12.362;2023-04-01T02:55:08;161260.75;;;10.19
71897;BMP280;59767;51.344;12.362;2023-04-01T02:58:12;161251.53;;;10.15
71897;BMP280;59767;51.344;12.362;2023-04-01T03:01:16;161256.81;;;10.17
71897;BMP280;59767;51.344;12.362;2023-04-01T03:04:20;161256.81;;;10.17
71897;BMP280;59767;51.344;12.362;2023-04-01T03:07:24;161260.75;;;10.19
71897;BMP280;59767;51.344;12.362;2023-04-01T03:10:28;161255.47;;;10.17
71897;BMP280;59767;51.344;12.362;2023-04-01T03:13:32;161255.47;;;10.17
71897;BMP280;59767;51.344;12.362;2023-04-01T03:16:37;161254.19;;;10.16
71897;BMP280;59767;51.344;12.362;2023-04-01T03:19:41;161250.28;;;10.15
71897;BMP280;59767;51.344;12.362;2023-04-01T03:22:45;161263.38;;;10.20
71897;BMP280;59767;51.344;12.362;2023-04-01T03:25:49;161251.53;;;10.15
71897;BMP280;59767;51.344;12.362;2023-04-01T03:28:54;161247.66;;;10.14
71897;BMP280;59767;51.344;12.362;2023-04-01T03:31:58;161247.66;;;10.14
71897;BMP280;59767;51.344;12.362;2023-04-01T03:35:03;161245.06;;;10.13
71897;BMP280;59767;51.344;12.362;2023-04-01T03:38:08;161242.47;;;10.12
71897;BMP280;59767;51.344;12.362;2023-04-01T03:41:15;161245.06;;;10.13
71897;BMP280;59767;51.344;12.362;2023-04-01T03:44:20;161250.28;;;10.15
71897;BMP280;59767;51.344;12.362;2023-04-01T03:47:23;161255.47;;;10.17
71897;BMP280;59767;51.344;12.362;2023-04-01T03:50:28;161246.38;;;10.13
71897;BMP280;59767;51.344;12.362;2023-04-01T03:53:34;161258.13;;;10.18
71897;BMP280;59767;51.344;12.362;2023-04-01T03:56:38;161243.72;;;10.12
71897;BMP280;59767;51.344;12.362;2023-04-01T03:59:42;161235.88;;;10.09
71897;BMP280;59767;51.344;12.362;2023-04-01T04:02:46;161234.59;;;10.09
71897;BMP280;59767;51.344;12.362;2023-04-01T04:05:50;161239.81;;;10.11
71897;BMP280;59767;51.344;12.362;2023-04-01T04:08:54;161234.59;;;10.09
71897;BMP280;59767;51.344;12.362;2023-04-01T04:11:59;161231.94;;;10.08
71897;BMP280;59767;51.344;12.362;2023-04-01T04:15:02;161229.34;;;10.07
71897;BMP280;59767;51.344;12.362;2023-04-01T04:18:07;161234.59;;;10.09
71897;BMP280;59767;51.344;12.362;2023-04-01T04:21:14;161220.19;;;10.03
71897;BMP280;59767;51.344;12.362;2023-04-01T04:24:18;161203.22;;;9.97
71897;BMP280;59767;51.344;12.362;2023-04-01T04:27:22;161214.94;;;10.01
71897;BMP280;59767;51.344;12.362;2023-04-01T04:30:26;161204.53;;;9.97
71897;BMP280;59767;51.344;12.362;2023-04-01T04:33:30;161199.28;;;9.95
71897;BMP280;59767;51.344;12.362;2023-04-01T04:36:34;161205.75;;;9.98
71897;BMP280;59767;51.344;12.362;2023-04-01T04:39:38;161213.66;;;10.01
71897;BMP280;59767;51.344;12.362;2023-04-01T04:42:42;161204.53;;;9.97
71897;BMP280;59767;51.344;12.362;2023-04-01T04:45:45;161200.59;;;9.96
71897;BMP280;59767;51.344;12.362;2023-04-01T04:48:50;161195.34;;;9.94
71897;BMP280;59767;51.344;12.362;2023-04-01T04:51:54;161199.28;;;9.95
71897;BMP280;59767;51.344;12.362;2023-04-01T04:54:57;161197.94;;;9.95
71897;BMP280;59767;51.344;12.362;2023-04-01T04:58:01;161195.34;;;9.94
71897;BMP280;59767;51.344;12.362;2023-04-01T05:01:06;161190.09;;;9.92
71897;BMP280;59767;51.344;12.362;2023-04-01T05:04:11;161195.34;;;9.94
71897;BMP280;59767;51.344;12.362;2023-04-01T05:07:14;161195.34;;;9.94
71897;BMP280;59767;51.344;12.362;2023-04-01T05:10:19;161192.75;;;9.93
71897;BMP280;59767;51.344;12.362;2023-04-01T05:13:24;161192.75;;;9.93
71897;BMP280;59767;51.344;12.362;2023-04-01T05:16:28;161191.41;;;9.92
71897;BMP280;59767;51.344;12.362;2023-04-01T05:19:32;161196.69;;;9.94
71897;BMP280;59767;51.344;12.362;2023-04-01T05:22:36;161211.03;;;10.00
71897;BMP280;59767;51.344;12.362;2023-04-01T05:25:40;161224.13;;;10.05
71897;BMP280;59767;51.344;12.362;2023-04-01T05:28:44;161255.47;;;10.17
71897;BMP280;59767;51.344;12.362;2023-04-01T05:31:48;161271.19;;;10.23
71897;BMP280;59767;51.344;12.362;2023-04-01T05:34:53;161294.72;;;10.32
71897;BMP280;59767;51.344;12.362;2023-04-01T05:37:57;161318.25;;;10.41
71897;BMP280;59767;51.344;12.362;2023-04-01T05:41:01;161344.47;;;10.51
71897;BMP280;59767;51.344;12.362;2023-04-01T05:44:06;161349.72;;;10.53
71897;BMP280;59767;51.344;12.362;2023-04-01T05:47:09;161351.00;;;10.53
71897;BMP280;59767;51.344;12.362;2023-04-01T05:50:13;161320.91;;;10.42
71897;BMP280;59767;51.344;12.362;2023-04-01T05:53:17;161326.13;;;10.44
71897;BMP280;59767;51.344;12.362;2023-04-01T05:56:21;161334.00;;;10.47
71897;BMP280;59767;51.344;12.362;2023-04-01T05:59:24;161324.84;;;10.43
71897;BMP280;59767;51.344;12.362;2023-04-01T06:02:28;161330.13;;;10.45
71897;BMP280;59767;51.344;12.362;2023-04-01T06:05:43;161336.59;;;10.48
71897;BMP280;59767;51.344;12.362;2023-04-01T06:08:47;161341.84;;;10.50
71897;BMP280;59767;51.344;12.362;2023-04-01T06:12:08;161369.31;;;10.60
71897;BMP280;59767;51.344;12.362;2023-04-01T06:18:38;161405.94;;;10.74
71897;BMP280;59767;51.344;12.362;2023-04-01T06:34:45;161508.03;;;11.13
71897;BMP280;59767;51.344;12.362;2023-04-01T06:50:42;161560.34;;;11.33
71897;BMP280;59767;51.344;12.362;2023-04-01T06:57:02;161582.63;;;11.42
71897;BMP280;59767;51.344;12.362;2023-04-01T07:00:29;161576.03;;;11.39
71897;BMP280;59767;51.344;12.362;2023-04-01T07:03:53;161604.84;;;11.50
71897;BMP280;59767;51.344;12.362;2023-04-01T07:07:04;161624.50;;;11.58
71897;BMP280;59767;51.344;12.362;2023-04-01T07:10:11;161645.41;;;11.66
71897;BMP280;59767;51.344;12.362;2023-04-01T07:13:30;161671.56;;;11.76
71897;BMP280;59767;51.344;12.362;2023-04-01T07:16:41;161701.72;;;11.87
71897;BMP280;59767;51.344;12.362;2023-04-01T07:19:47;161716.09;;;11.93
71897;BMP280;59767;51.344;12.362;2023-04-01T07:22:55;161752.78;;;12.07
71897;BMP280;59767;51.344;12.362;2023-04-01T07:26:13;161751.47;;;12.06
71897;BMP280;59767;51.344;12.362;2023-04-01T07:29:18;161752.78;;;12.07
71897;BMP280;59767;51.344;12.362;2023-04-01T07:36:03;161716.09;;;11.93
71897;BMP280;59767;51.344;12.362;2023-04-01T07:45:29;161722.69;;;11.95
71897;BMP280;59767;51.344;12.362;2023-04-01T07:48:40;161781.56;;;12.18
71897;BMP280;59767;51.344;12.362;2023-04-01T07:52:05;161823.47;;;12.34
71897;BMP280;59767;51.344;12.362;2023-04-01T08:01:52;161894.19;;;12.61
71897;BMP280;59767;51.344;12.362;2023-04-01T08:08:36;161815.63;;;12.31
71897;BMP280;59767;51.344;12.362;2023-04-01T08:18:15;161743.63;;;12.03
71897;BMP280;59767;51.344;12.362;2023-04-01T08:21:25;161759.34;;;12.09
71897;BMP280;59767;51.344;12.362;2023-04-01T08:24:44;161798.66;;;12.24
71897;BMP280;59767;51.344;12.362;2023-04-01T08:27:53;161862.75;;;12.49
71897;BMP280;59767;51.344;12.362;2023-04-01T08:31:03;161916.44;;;12.69
71897;BMP280;59767;51.344;12.362;2023-04-01T08:34:20;161928.19;;;12.74
71897;BMP280;59767;51.344;12.362;2023-04-01T08:37:30;161964.91;;;12.88
71897;BMP280;59767;51.344;12.362;2023-04-01T08:47:11;162035.59;;;13.15
71897;BMP280;59767;51.344;12.362;2023-04-01T09:03:37;162035.59;;;13.15
71897;BMP280;59767;51.344;12.362;2023-04-01T09:10:01;162081.44;;;13.32
71897;BMP280;59767;51.344;12.362;2023-04-01T09:13:18;162080.16;;;13.32
71897;BMP280;59767;51.344;12.362;2023-04-01T09:16:42;162102.41;;;13.40
71897;BMP280;59767;51.344;12.362;2023-04-01T09:30:27;162150.91;;;13.59
71897;BMP280;59767;51.344;12.362;2023-04-01T10:02:12;162226.84;;;13.88
71897;BMP280;59767;51.344;12.362;2023-04-01T10:15:00;162133.88;;;13.52
71897;BMP280;59767;51.344;12.362;2023-04-01T10:31:40;161951.84;;;12.83
71897;BMP280;59767;51.344;12.362;2023-04-01T10:53:49;161984.56;;;12.95
71897;BMP280;59767;51.344;12.362;2023-04-01T10:57:05;162004.19;;;13.03
71897;BMP280;59767;51.344;12.362;2023-04-01T11:13:54;162043.47;;;13.18
71897;BMP280;59767;51.344;12.362;2023-04-01T11:26:43;162099.81;;;13.39
71897;BMP280;59767;51.344;12.362;2023-04-01T11:36:44;162149.59;;;13.58
71897;BMP280;59767;51.344;12.362;2023-04-01T11:59:55;162260.94;;;14.01
71897;BMP280;59767;51.344;12.362;2023-04-01T12:10:02;162127.28;;;13.50
71897;BMP280;59767;51.344;12.362;2023-04-01T12:19:48;162077.50;;;13.31
71897;BMP280;59767;51.344;12.362;2023-04-01T12:39:26;161953.09;;;12.83
71897;BMP280;59767;51.344;12.362;2023-04-01T12:55:42;162071.00;;;13.28
71897;BMP280;59767;51.344;12.362;2023-04-01T13:02:23;162095.88;;;13.38
71897;BMP280;59767;51.344;12.362;2023-04-01T13:12:28;162120.78;;;13.47
71897;BMP280;59767;51.344;12.362;2023-04-01T13:19:41;162084.09;;;13.33
71897;BMP280;59767;51.344;12.362;2023-04-01T13:35:47;162085.44;;;13.34
71897;BMP280;59767;51.344;12.362;2023-04-01T13:45:35;162044.75;;;13.18
71897;BMP280;59767;51.344;12.362;2023-04-01T13:55:26;162021.22;;;13.09
71897;BMP280;59767;51.344;12.362;2023-04-01T14:01:41;162039.59;;;13.16
71897;BMP280;59767;51.344;12.362;2023-04-01T14:17:50;161968.84;;;12.89
71897;BMP280;59767;51.344;12.362;2023-04-01T14:27:54;161970.13;;;12.90
71897;BMP280;59767;51.344;12.362;2023-04-01T14:41:00;161953.09;;;12.83
71897;BMP280;59767;51.344;12.362;2023-04-01T14:47:22;161949.16;;;12.82
71897;BMP280;59767;51.344;12.362;2023-04-01T14:50:29;161957.00;;;12.85
71897;BMP280;59767;51.344;12.362;2023-04-01T14:53:35;161974.06;;;12.91
71897;BMP280;59767;51.344;12.362;2023-04-01T14:56:43;161966.19;;;12.88
71897;BMP280;59767;51.344;12.362;2023-04-01T14:59:51;161976.69;;;12.92
71897;BMP280;59767;51.344;12.362;2023-04-01T15:06:53;161949.16;;;12.82
71897;BMP280;59767;51.344;12.362;2023-04-01T15:10:06;161928.19;;;12.74
71897;BMP280;59767;51.344;12.362;2023-04-01T15:16:23;161953.09;;;12.83
71897;BMP280;59767;51.344;12.362;2023-04-01T15:26:53;161997.66;;;13.00
71897;BMP280;59767;51.344;12.362;2023-04-01T15:39:48;161908.56;;;12.66
71897;BMP280;59767;51.344;12.362;2023-04-01T15:56:06;161898.13;;;12.62
71897;BMP280;59767;51.344;12.362;2023-04-01T16:02:18;161841.78;;;12.41
71897;BMP280;59767;51.344;12.362;2023-04-01T16:21:10;161793.38;;;12.22
71897;BMP280;59767;51.344;12.362;2023-04-01T16:24:30;161768.47;;;12.13
71897;BMP280;59767;51.344;12.362;2023-04-01T16:27:44;161773.75;;;12.15
71897;BMP280;59767;51.344;12.362;2023-04-01T16:37:20;161742.31;;;12.03
71897;BMP280;59767;51.344;12.362;2023-04-01T16:40:47;161721.34;;;11.95
71897;BMP280;59767;51.344;12.362;2023-04-01T16:43:50;161718.75;;;11.94
71897;BMP280;59767;51.344;12.362;2023-04-01T16:46:59;161730.50;;;11.98
71897;BMP280;59767;51.344;12.362;2023-04-01T16:50:22;161699.13;;;11.86
71897;BMP280;59767;51.344;12.362;2023-04-01T16:57:37;161680.78;;;11.79
71897;BMP280;59767;51.344;12.362;2023-04-01T17:09:33;161676.84;;;11.78
71897;BMP280;59767;51.344;12.362;2023-04-01T17:13:03;161672.91;;;11.76
71897;BMP280;59767;51.344;12.362;2023-04-01T17:16:13;161646.75;;;11.66
71897;BMP280;59767;51.344;12.362;2023-04-01T17:19:24;161645.41;;;11.66
71897;BMP280;59767;51.344;12.362;2023-04-01T17:28:47;161640.19;;;11.64
71897;BMP280;59767;51.344;12.362;2023-04-01T17:31:57;161616.59;;;11.55
71897;BMP280;59767;51.344;12.362;2023-04-01T17:35:13;161617.94;;;11.55
71897;BMP280;59767;51.344;12.362;2023-04-01T17:38:32;161621.84;;;11.57
71897;BMP280;59767;51.344;12.362;2023-04-01T17:45:10;161595.66;;;11.47
71897;BMP280;59767;51.344;12.362;2023-04-01T17:48:24;161591.75;;;11.45
71897;BMP280;59767;51.344;12.362;2023-04-01T17:51:34;161590.47;;;11.45
71897;BMP280;59767;51.344;12.362;2023-04-01T17:54:45;161582.63;;;11.42
71897;BMP280;59767;51.344;12.362;2023-04-01T18:02:00;161556.47;;;11.32
71897;BMP280;59767;51.344;12.362;2023-04-01T18:10:50;161531.59;;;11.22
71897;BMP280;59767;51.344;12.362;2023-04-01T18:14:02;161527.66;;;11.21
71897;BMP280;59767;51.344;12.362;2023-04-01T18:17:12;161508.03;;;11.13
71897;BMP280;59767;51.344;12.362;2023-04-01T18:20:26;161498.84;;;11.10
71897;BMP280;59767;51.344;12.362;2023-04-01T18:23:46;161489.69;;;11.06
71897;BMP280;59767;51.344;12.362;2023-04-01T18:27:06;161475.34;;;11.01
71897;BMP280;59767;51.344;12.362;2023-04-01T18:33:30;161459.56;;;10.95
71897;BMP280;59767;51.344;12.362;2023-04-01T18:39:40;161455.69;;;10.93
71897;BMP280;59767;51.344;12.362;2023-04-01T18:46:16;161445.22;;;10.89
71897;BMP280;59767;51.344;12.362;2023-04-01T18:49:25;161441.28;;;10.88
71897;BMP280;59767;51.344;12.362;2023-04-01T18:52:40;161436.06;;;10.86
71897;BMP280;59767;51.344;12.362;2023-04-01T18:59:27;161429.53;;;10.83
71897;BMP280;59767;51.344;12.362;2023-04-01T19:02:34;161436.06;;;10.86
71897;BMP280;59767;51.344;12.362;2023-04-01T19:05:40;161428.22;;;10.83
71897;BMP280;59767;51.344;12.362;2023-04-01T19:08:45;161434.75;;;10.85
71897;BMP280;59767;51.344;12.362;2023-04-01T19:21:26;161381.06;;;10.65
71897;BMP280;59767;51.344;12.362;2023-04-01T19:27:42;161319.59;;;10.41
71897;BMP280;59767;51.344;12.362;2023-04-01T19:31:03;161298.66;;;10.33
71897;BMP280;59767;51.344;12.362;2023-04-01T19:43:30;161268.59;;;10.22
71897;BMP280;59767;51.344;12.362;2023-04-01T19:46:43;161237.22;;;10.10
71897;BMP280;59767;51.344;12.362;2023-04-01T19:56:31;161194.03;;;9.93
71897;BMP280;59767;51.344;12.362;2023-04-01T20:09:15;161146.97;;;9.75
71897;BMP280;59767;51.344;12.362;2023-04-01T20:12:33;161123.41;;;9.66
71897;BMP280;59767;51.344;12.362;2023-04-01T20:15:44;161107.72;;;9.60
71897;BMP280;59767;51.344;12.362;2023-04-01T20:18:54;161109.06;;;9.61
71897;BMP280;59767;51.344;12.362;2023-04-01T20:22:00;161105.13;;;9.59
71897;BMP280;59767;51.344;12.362;2023-04-01T20:25:06;161103.81;;;9.59
71897;BMP280;59767;51.344;12.362;2023-04-01T20:40:47;161027.94;;;9.30
71897;BMP280;59767;51.344;12.362;2023-04-01T20:43:57;161001.81;;;9.20
71897;BMP280;59767;51.344;12.362;2023-04-01T20:50:28;160986.09;;;9.14
71897;BMP280;59767;51.344;12.362;2023-04-01T21:28:41;160835.81;;;8.56
71897;BMP280;59767;51.344;12.362;2023-04-01T21:38:04;160796.59;;;8.41
71897;BMP280;59767;51.344;12.362;2023-04-01T21:41:20;160795.34;;;8.40
71897;BMP280;59767;51.344;12.362;2023-04-01T22:00:31;160651.53;;;7.85
71897;BMP280;59767;51.344;12.362;2023-04-01T22:06:48;160605.84;;;7.68
71897;BMP280;59767;51.344;12.362;2023-04-01T22:13:20;160571.84;;;7.55
71897;BMP280;59767;51.344;12.362;2023-04-01T22:16:43;160547.03;;;7.45
71897;BMP280;59767;51.344;12.362;2023-04-01T22:19:54;160579.69;;;7.58
71897;BMP280;59767;51.344;12.362;2023-04-01T22:29:23;160554.88;;;7.48
71897;BMP280;59767;51.344;12.362;2023-04-01T22:32:36;160566.66;;;7.53
71897;BMP280;59767;51.344;12.362;2023-04-01T22:48:29;160486.97;;;7.22
71897;BMP280;59767;51.344;12.362;2023-04-01T22:51:43;160439.91;;;7.04
71897;BMP280;59767;51.344;12.362;2023-04-01T22:54:52;160390.31;;;6.85
71897;BMP280;59767;51.344;12.362;2023-04-01T22:58:11;160386.41;;;6.84
71897;BMP280;59767;51.344;12.362;2023-04-01T23:01:21;160389.03;;;6.85
71897;BMP280;59767;51.344;12.362;2023-04-01T23:04:31;160400.75;;;6.89
71897;BMP280;59767;51.344;12.362;2023-04-01T23:10:49;160391.63;;;6.86
71897;BMP280;59767;51.344;12.362;2023-04-01T23:14:01;160385.13;;;6.83
71897;BMP280;59767;51.344;12.362;2023-04-01T23:23:39;160372.03;;;6.78
71897;BMP280;59767;51.344;12.362;2023-04-01T23:26:55;160372.03;;;6.78
71897;BMP280;59767;51.344;12.362;2023-04-01T23:30:01;160351.16;;;6.70
71897;BMP280;59767;51.344;12.362;2023-04-01T23:33:10;160344.59;;;6.68
71897;BMP280;59767;51.344;12.362;2023-04-01T23:36:14;160336.75;;;6.65
71897;BMP280;59767;51.344;12.362;2023-04-01T23:39:26;160318.53;;;6.58
71897;BMP280;59767;51.344;12.362;2023-04-01T23:42:32;160302.78;;;6.52
71897;BMP280;59767;51.344;12.362;2023-04-01T23:45:41;160270.16;;;6.39
71897;BMP280;59767;51.344;12.362;2023-04-01T23:48:46;160238.84;;;6.27
71897;BMP280;59767;51.344;12.362;2023-04-01T23:51:55;160242.78;;;6.29
71897;BMP280;59767;51.344;12.362;2023-04-01T23:58:27;160199.66;;;6.12
